Time;durP1;ratioP1;P1;durP2;ratioP2;P2;SDS_P1;SDS_P2;PMS_P1;PMS_P2;Temp;Humidity;BMP_temperature;BMP_pressure;BME280_temperature;BME280_humidity;BME280_pressure;Samples;Min_cycle;Max_cycle;Signal;HPM_P1;HPM_P2
2023/04/09 00:01:15;;;;;;;143.30;82.30;;;;;;;1.64;77.02;99729.06;105336;1257;108102;-80
2023/04/09 00:03:42;;;;;;;138.50;80.00;;;;;;;1.64;77.04;99727.84;105199;1255;95231;-72
2023/04/09 00:06:11;;;;;;;135.50;76.60;;;;;;;1.65;77.19;99730.27;105427;1252;95735;-73
2023/04/09 00:08:40;;;;;;;129.10;75.40;;;;;;;1.67;77.17;99726.39;105481;1252;109045;-72
2023/04/09 00:11:08;;;;;;;145.50;73.80;;;;;;;1.65;77.00;99722.75;105229;1256;102207;-78
2023/04/09 00:13:36;;;;;;;139.10;77.00;;;;;;;1.63;77.07;99723.48;105383;1256;108402;-71
2023/04/09 00:16:07;;;;;;;168.20;81.70;;;;;;;1.65;77.51;99718.90;105378;1253;96054;-75
2023/04/09 00:18:35;;;;;;;145.90;78.10;;;;;;;1.68;77.43;99720.58;105423;1252;95252;-72
2023/04/09 00:21:03;;;;;;;159.10;79.90;;;;;;;1.69;77.12;99721.25;105429;1256;108142;-72
2023/04/09 00:23:35;;;;;;;154.00;80.20;;;;;;;1.71;77.50;99722.60;105589;1252;102631;-73
2023/04/09 00:26:03;;;;;;;712.80;275.70;;;;;;;1.73;77.28;99724.14;105453;1256;107203;-71
2023/04/09 00:28:31;;;;;;;945.20;373.50;;;;;;;1.71;77.44;99721.38;105740;1252;95238;-73
2023/04/09 00:30:59;;;;;;;557.90;236.70;;;;;;;1.71;77.23;99723.66;105615;1252;95167;-73
2023/04/09 00:33:27;;;;;;;333.90;154.20;;;;;;;1.70;77.14;99722.46;105360;1256;108906;-73
2023/04/09 00:35:55;;;;;;;199.60;94.10;;;;;;;1.68;77.35;99723.02;105709;1255;102176;-72
2023/04/09 00:38:23;;;;;;;135.10;70.80;;;;;;;1.63;76.97;99719.13;105614;1255;107217;-73
2023/04/09 00:40:51;;;;;;;159.80;67.40;;;;;;;1.60;76.93;99723.75;105477;1256;95247;-73
2023/04/09 00:43:19;;;;;;;168.40;70.80;;;;;;;1.58;77.03;99723.09;105567;1257;95487;-73
2023/04/09 00:45:47;;;;;;;184.10;78.90;;;;;;;1.60;77.19;99723.59;105620;1254;109281;-72
2023/04/09 00:48:16;;;;;;;165.60;74.80;;;;;;;1.60;77.13;99721.84;105425;1253;102322;-76
2023/04/09 00:50:44;;;;;;;189.10;63.90;;;;;;;1.63;77.35;99721.58;105771;1256;107623;-72
2023/04/09 00:53:13;;;;;;;232.20;63.10;;;;;;;1.67;77.26;99716.23;105440;1256;95269;-72
2023/04/09 00:55:45;;;;;;;208.40;66.10;;;;;;;1.65;77.29;99716.98;105376;1255;96079;-73
2023/04/09 00:58:13;;;;;;;180.90;67.60;;;;;;;1.65;77.52;99715.58;105262;1254;108629;-78
2023/04/09 01:00:41;;;;;;;144.10;62.00;;;;;;;1.69;77.58;99721.09;105298;1255;102369;-75
2023/04/09 01:03:09;;;;;;;162.10;63.80;;;;;;;1.70;77.59;99719.82;105157;1255;107339;-71
2023/04/09 01:05:48;;;;;;;143.70;60.00;;;;;;;1.71;77.26;99720.15;105509;1253;96595;-77
2023/04/09 01:08:52;;;;;;;143.60;59.50;;;;;;;1.72;77.51;99718.56;105209;1252;96592;-72
2023/04/09 01:11:51;;;;;;;159.90;58.70;;;;;;;1.74;77.70;99717.45;105611;1253;109868;-72
2023/04/09 01:14:40;;;;;;;153.40;60.80;;;;;;;1.76;77.80;99719.52;105572;1255;102221;-73
2023/04/09 01:17:16;;;;;;;142.20;57.00;;;;;;;1.77;77.55;99714.91;105223;1256;106375;-72
2023/04/09 01:20:01;;;;;;;128.90;59.40;;;;;;;1.80;77.71;99713.30;105404;1253;96559;-72
2023/04/09 01:23:04;;;;;;;170.90;75.40;;;;;;;1.83;77.72;99716.17;105262;1253;97913;-72
2023/04/09 01:26:12;;;;;;;140.60;75.50;;;;;;;1.87;77.83;99720.24;105465;1255;109492;-72
2023/04/09 01:28:45;;;;;;;152.40;78.40;;;;;;;1.89;77.86;99720.20;105470;1256;103036;-75
2023/04/09 01:31:17;;;;;;;154.70;81.70;;;;;;;1.92;77.91;99720.49;105376;1266;107084;-81
2023/04/09 01:33:46;;;;;;;144.70;83.30;;;;;;;1.92;77.71;99719.44;105241;1255;97886;-73
2023/04/09 01:36:15;;;;;;;129.90;76.10;;;;;;;1.93;78.10;99721.68;105604;1256;98032;-73
2023/04/09 01:38:47;;;;;;;136.50;76.00;;;;;;;1.95;77.87;99724.27;105337;1256;109933;-70
2023/04/09 01:41:20;;;;;;;130.40;73.20;;;;;;;1.97;77.96;99722.65;105478;1256;102244;-80
2023/04/09 01:43:50;;;;;;;131.50;76.70;;;;;;;1.99;77.82;99719.80;105369;1253;108289;-72
2023/04/09 01:46:20;;;;;;;127.80;74.10;;;;;;;1.97;77.55;99719.66;105471;1255;96584;-71
2023/04/09 01:48:49;;;;;;;134.00;76.60;;;;;;;1.97;77.90;99722.27;105272;1258;97100;-72
2023/04/09 01:51:18;;;;;;;134.00;77.40;;;;;;;2.02;78.06;99727.04;105365;1255;111036;-72
2023/04/09 01:53:48;;;;;;;131.10;75.10;;;;;;;2.07;78.26;99729.34;106012;1256;102190;-73
2023/04/09 01:56:16;;;;;;;127.70;74.30;;;;;;;2.10;77.91;99729.10;105386;1274;107673;-73
2023/04/09 01:58:44;;;;;;;132.00;74.50;;;;;;;2.11;78.01;99728.55;105537;1256;96916;-73
2023/04/09 02:01:23;;;;;;;133.10;76.00;;;;;;;2.12;77.74;99726.77;105360;1256;97095;-71
2023/04/09 02:03:59;;;;;;;128.10;73.40;;;;;;;2.13;77.94;99728.86;105406;1274;108915;-71
2023/04/09 02:06:38;;;;;;;133.10;73.70;;;;;;;2.13;77.96;99727.45;105529;1255;101590;-73
2023/04/09 02:09:08;;;;;;;134.70;77.10;;;;;;;2.14;78.08;99731.98;105285;1256;107604;-74
2023/04/09 02:11:41;;;;;;;124.30;69.80;;;;;;;2.15;77.61;99732.80;108749;1251;94325;-71
2023/04/09 02:14:11;;;;;;;98.60;53.10;;;;;;;2.16;77.59;99732.45;108099;1252;96581;-72
2023/04/09 02:16:39;;;;;;;120.00;66.20;;;;;;;2.13;77.76;99735.85;105432;1256;109540;-75
2023/04/09 02:19:07;;;;;;;124.90;66.60;;;;;;;2.12;77.90;99730.46;108749;1251;102198;-74
2023/04/09 02:21:35;;;;;;;114.50;64.50;;;;;;;2.12;77.74;99731.50;107267;1252;107444;-72
2023/04/09 02:24:03;;;;;;;121.50;63.10;;;;;;;2.11;77.93;99732.20;107578;1254;96565;-74
2023/04/09 02:26:31;;;;;;;137.90;70.40;;;;;;;2.12;78.07;99730.27;105410;1259;97101;-75
2023/04/09 02:28:58;;;;;;;132.00;67.70;;;;;;;2.14;77.90;99733.21;105601;1256;109325;-72
2023/04/09 02:31:26;;;;;;;146.40;73.60;;;;;;;2.13;77.86;99730.27;105499;1254;102241;-72
2023/04/09 02:33:54;;;;;;;131.40;69.00;;;;;;;2.14;78.02;99730.58;105558;1253;108350;-72
2023/04/09 02:36:22;;;;;;;133.70;70.90;;;;;;;2.13;77.81;99728.16;105348;1266;96570;-74
2023/04/09 02:38:50;;;;;;;133.60;73.30;;;;;;;2.12;77.87;99726.06;105114;1255;97817;-73
2023/04/09 02:41:18;;;;;;;113.80;62.30;;;;;;;2.12;78.01;99723.81;105419;1254;109940;-71
2023/04/09 02:43:46;;;;;;;121.70;63.50;;;;;;;2.11;77.93;99727.33;105523;1254;102244;-80
2023/04/09 02:46:14;;;;;;;107.10;57.20;;;;;;;2.10;77.75;99728.23;105351;1251;107349;-72
2023/04/09 02:48:41;;;;;;;108.70;58.50;;;;;;;2.07;77.98;99727.07;105500;1258;97777;-73
2023/04/09 02:51:09;;;;;;;113.30;61.10;;;;;;;2.04;77.61;99725.08;105281;1256;97728;-72
2023/04/09 02:53:39;;;;;;;109.30;57.70;;;;;;;2.06;78.08;99728.33;105136;1255;109891;-72
2023/04/09 02:56:07;;;;;;;110.00;61.50;;;;;;;2.09;78.06;99732.45;105429;1253;102234;-75
2023/04/09 02:58:35;;;;;;;107.40;58.50;;;;;;;2.11;78.11;99731.70;105448;1256;107676;-71
2023/04/09 03:01:03;;;;;;;115.10;61.60;;;;;;;2.13;78.02;99731.48;105447;1256;97323;-72
2023/04/09 03:03:32;;;;;;;106.20;59.50;;;;;;;2.13;78.15;99732.54;105494;1253;97527;-73
2023/04/09 03:05:59;;;;;;;111.00;60.60;;;;;;;2.14;78.16;99731.64;105364;1255;109877;-73
2023/04/09 03:08:27;;;;;;;109.90;60.80;;;;;;;2.13;78.09;99732.16;105473;1255;100700;-72
2023/04/09 03:10:55;;;;;;;109.80;58.40;;;;;;;2.14;77.98;99735.14;105723;1255;106600;-73
2023/04/09 03:13:27;;;;;;;108.10;59.40;;;;;;;2.13;77.90;99735.69;105257;1253;97813;-72
2023/04/09 03:15:55;;;;;;;108.00;58.80;;;;;;;2.13;78.44;99735.16;105445;1253;97502;-72
2023/04/09 03:18:23;;;;;;;107.60;60.80;;;;;;;2.14;78.01;99739.33;105341;1254;109393;-72
2023/04/09 03:20:51;;;;;;;110.10;63.60;;;;;;;2.18;78.21;99743.75;105530;1254;102274;-75
2023/04/09 03:23:19;;;;;;;105.30;59.60;;;;;;;2.23;78.65;99743.27;105515;1251;108078;-73
2023/04/09 03:25:46;;;;;;;106.70;58.20;;;;;;;2.27;78.08;99739.31;105278;1272;97810;-73
2023/04/09 03:28:14;;;;;;;102.20;60.00;;;;;;;2.31;78.38;99736.95;105155;1256;97074;-80
2023/04/09 03:30:42;;;;;;;101.70;55.70;;;;;;;2.36;78.26;99733.81;105537;1256;109592;-72
2023/04/09 03:33:10;;;;;;;97.10;58.80;;;;;;;2.37;78.19;99735.02;105543;1255;101867;-71
2023/04/09 03:35:38;;;;;;;99.40;57.40;;;;;;;2.40;78.21;99730.73;105550;1255;108112;-72
2023/04/09 03:38:06;;;;;;;101.30;60.60;;;;;;;2.45;78.52;99736.17;105404;1256;97433;-79
2023/04/09 03:40:35;;;;;;;104.00;58.60;;;;;;;2.50;78.24;99736.75;105474;1254;97814;-75
2023/04/09 03:43:03;;;;;;;103.10;58.90;;;;;;;2.54;78.22;99734.70;105367;1253;108339;-76
2023/04/09 03:45:31;;;;;;;99.00;56.40;;;;;;;2.57;78.56;99734.80;105410;1256;102261;-72
2023/04/09 03:47:59;;;;;;;96.40;56.70;;;;;;;2.59;78.50;99734.55;105372;1272;107712;-73
2023/04/09 03:50:27;;;;;;;95.00;54.60;;;;;;;2.61;78.52;99733.98;105291;1256;96674;-73
2023/04/09 03:52:55;;;;;;;97.30;56.00;;;;;;;2.64;78.40;99733.73;105205;1256;97107;-73
2023/04/09 03:55:23;;;;;;;100.70;56.90;;;;;;;2.67;78.28;99733.62;105396;1257;108561;-72
2023/04/09 03:57:51;;;;;;;104.50;58.60;;;;;;;2.71;78.46;99731.77;105604;1255;102290;-73
2023/04/09 04:00:19;;;;;;;98.10;57.00;;;;;;;2.72;78.54;99732.61;105535;1251;107599;-72
2023/04/09 04:02:47;;;;;;;107.80;62.70;;;;;;;2.74;78.20;99728.69;105445;1259;96584;-72
2023/04/09 04:05:15;;;;;;;105.20;59.20;;;;;;;2.77;78.35;99725.63;105378;1254;97515;-81
2023/04/09 04:07:43;;;;;;;113.00;65.20;;;;;;;2.80;78.45;99727.65;105527;1255;110815;-73
2023/04/09 04:10:11;;;;;;;112.40;68.00;;;;;;;2.83;78.66;99730.02;105200;1264;101797;-72
2023/04/09 04:12:39;;;;;;;125.60;71.90;;;;;;;2.87;78.89;99734.77;105277;1256;107323;-71
2023/04/09 04:15:08;;;;;;;123.30;68.50;;;;;;;2.91;78.82;99734.51;105450;1256;97045;-72
2023/04/09 04:17:36;;;;;;;113.10;67.80;;;;;;;2.95;78.72;99737.01;105193;1254;97094;-73
2023/04/09 04:20:05;;;;;;;117.70;68.70;;;;;;;2.98;78.70;99736.38;105505;1253;108706;-72
2023/04/09 04:22:34;;;;;;;114.40;68.20;;;;;;;3.02;78.61;99742.21;105433;1253;102383;-75
2023/04/09 04:25:03;;;;;;;121.00;68.70;;;;;;;3.04;78.82;99742.19;105517;1255;107185;-73
2023/04/09 04:27:31;;;;;;;112.00;66.20;;;;;;;3.06;78.82;99743.50;105399;1256;96558;-72
2023/04/09 04:30:00;;;;;;;117.10;71.20;;;;;;;3.10;78.70;99745.48;105137;1254;100195;-75
2023/04/09 04:32:29;;;;;;;117.80;70.20;;;;;;;3.14;78.62;99744.14;105433;1256;109434;-71
2023/04/09 04:34:57;;;;;;;117.90;70.70;;;;;;;3.20;78.82;99750.60;105286;1256;102176;-74
2023/04/09 04:37:25;;;;;;;111.70;66.60;;;;;;;3.26;78.86;99752.16;105155;1254;107683;-75
2023/04/09 04:39:52;;;;;;;115.20;67.50;;;;;;;3.32;78.91;99755.52;105605;1254;96598;-74
2023/04/09 04:42:22;;;;;;;112.20;66.90;;;;;;;3.34;78.57;99754.91;105869;1251;97085;-73
2023/04/09 04:44:50;;;;;;;122.70;74.80;;;;;;;3.39;78.72;99761.23;105685;1255;109355;-76
2023/04/09 04:47:18;;;;;;;115.20;68.40;;;;;;;3.45;78.78;99755.64;105614;1257;102218;-75
2023/04/09 04:49:46;;;;;;;126.20;74.00;;;;;;;3.50;78.76;99756.14;105242;1251;107436;-74
2023/04/09 04:52:14;;;;;;;116.90;68.20;;;;;;;3.57;78.78;99757.52;105480;1266;97804;-75
2023/04/09 04:54:44;;;;;;;113.20;64.00;;;;;;;3.63;78.77;99758.70;105589;1256;97099;-74
2023/04/09 04:57:12;;;;;;;112.40;66.30;;;;;;;3.69;78.67;99757.98;105542;1256;110331;-73
2023/04/09 04:59:40;;;;;;;114.20;64.70;;;;;;;3.75;78.68;99759.89;105636;1253;100957;-72
2023/04/09 05:02:09;;;;;;;115.50;68.00;;;;;;;3.81;78.82;99756.88;105723;1255;107078;-76
2023/04/09 05:04:37;;;;;;;111.10;65.80;;;;;;;3.92;79.15;99753.53;105884;1253;96611;-73
2023/04/09 05:07:05;;;;;;;118.90;69.80;;;;;;;4.02;78.95;99758.48;105838;1251;96619;-72
2023/04/09 05:09:33;;;;;;;140.40;83.30;;;;;;;4.10;78.95;99759.58;105758;1251;109926;-73
2023/04/09 05:12:01;;;;;;;145.90;84.20;;;;;;;4.16;78.98;99765.15;105466;1256;101489;-75
2023/04/09 05:14:30;;;;;;;124.50;71.40;;;;;;;4.26;79.02;99765.19;105539;1256;106692;-71
2023/04/09 05:16:58;;;;;;;112.20;69.30;;;;;;;4.32;78.90;99763.91;105364;1256;96615;-75
2023/04/09 05:19:26;;;;;;;108.90;65.40;;;;;;;4.38;78.93;99759.11;105564;1256;97083;-71
2023/04/09 05:21:53;;;;;;;101.90;62.40;;;;;;;4.46;78.91;99763.24;105515;1253;109491;-75
2023/04/09 05:24:21;;;;;;;103.70;63.50;;;;;;;4.53;78.94;99763.34;105590;1253;102199;-74
2023/04/09 05:26:49;;;;;;;96.50;57.90;;;;;;;4.59;78.94;99762.04;105286;1256;107675;-74
2023/04/09 05:29:17;;;;;;;98.60;61.30;;;;;;;4.65;79.04;99763.08;105765;1252;96662;-74
2023/04/09 05:31:45;;;;;;;96.20;59.50;;;;;;;4.72;78.97;99768.44;105412;1257;96955;-73
2023/04/09 05:34:13;;;;;;;121.90;67.30;;;;;;;4.80;79.05;99770.59;105352;1257;109898;-73
2023/04/09 05:36:41;;;;;;;177.40;100.50;;;;;;;4.88;78.97;99770.66;105357;1257;102196;-74
2023/04/09 05:39:09;;;;;;;160.90;95.80;;;;;;;4.94;78.92;99773.94;105626;1251;108830;-72
2023/04/09 05:41:37;;;;;;;149.50;88.20;;;;;;;5.02;79.00;99779.63;105183;1259;98051;-73
2023/04/09 05:44:05;;;;;;;155.80;91.50;;;;;;;5.08;78.96;99778.36;105388;1256;96587;-72
2023/04/09 05:46:33;;;;;;;154.30;91.00;;;;;;;5.10;78.96;99778.59;105333;1257;110626;-78
2023/04/09 05:49:01;;;;;;;114.20;73.70;;;;;;;5.10;78.91;99773.54;105477;1254;102359;-73
2023/04/09 05:51:29;;;;;;;115.20;72.00;;;;;;;5.04;78.67;99777.77;105541;1254;107633;-73
2023/04/09 05:53:58;;;;;;;105.50;70.20;;;;;;;5.00;78.69;99780.91;105652;1256;96710;-72
2023/04/09 05:56:26;;;;;;;102.10;64.60;;;;;;;4.98;78.95;99781.88;105563;1255;97960;-74
2023/04/09 05:58:54;;;;;;;115.40;78.30;;;;;;;4.94;78.71;99781.68;108739;1253;110594;-72
2023/04/09 06:01:22;;;;;;;120.30;79.30;;;;;;;4.92;78.74;99782.08;105609;1256;102220;-77
2023/04/09 06:03:51;;;;;;;99.20;67.60;;;;;;;4.91;78.74;99785.63;105596;1256;107525;-72
2023/04/09 06:06:23;;;;;;;94.90;62.90;;;;;;;4.91;78.63;99787.05;105459;1256;97887;-73
2023/04/09 06:08:51;;;;;;;87.10;57.10;;;;;;;4.92;78.73;99790.70;105589;1254;96579;-74
2023/04/09 06:11:20;;;;;;;75.60;48.60;;;;;;;4.93;78.76;99792.96;105578;1255;109889;-71
2023/04/09 06:13:48;;;;;;;79.70;51.70;;;;;;;4.93;78.76;99795.79;105502;1256;101562;-72
2023/04/09 06:16:17;;;;;;;72.30;47.00;;;;;;;4.92;78.87;99796.84;105379;1257;107739;-72
2023/04/09 06:18:48;;;;;;;81.80;52.30;;;;;;;4.95;78.83;99798.52;105271;1254;97800;-73
2023/04/09 06:21:16;;;;;;;97.60;66.60;;;;;;;5.01;78.90;99798.83;105302;1256;97100;-72
2023/04/09 06:23:44;;;;;;;91.50;59.50;;;;;;;5.05;78.91;99798.14;105507;1256;109520;-73
2023/04/09 06:26:11;;;;;;;77.20;50.80;;;;;;;5.07;78.94;99797.52;105505;1266;101922;-72
2023/04/09 06:28:40;;;;;;;81.20;52.90;;;;;;;5.12;78.95;99803.83;105362;1253;108199;-72
2023/04/09 06:31:08;;;;;;;74.90;48.70;;;;;;;5.18;79.01;99801.67;105592;1259;96620;-71
2023/04/09 06:33:36;;;;;;;76.10;48.80;;;;;;;5.25;79.00;99804.61;105309;1253;97502;-72
2023/04/09 06:36:04;;;;;;;73.70;46.90;;;;;;;5.31;78.90;99811.57;105497;1252;110759;-70
2023/04/09 06:38:32;;;;;;;74.30;48.30;;;;;;;5.39;78.98;99807.54;105185;1253;101962;-70
2023/04/09 06:41:00;;;;;;;72.30;47.80;;;;;;;5.50;79.23;99808.73;105451;1253;106716;-71
2023/04/09 06:43:28;;;;;;;75.10;47.10;;;;;;;5.60;79.18;99811.13;106545;1256;96599;-69
2023/04/09 06:45:56;;;;;;;71.20;47.00;;;;;;;5.74;79.12;99809.71;105435;1255;97921;-70
2023/04/09 06:48:24;;;;;;;74.70;49.30;;;;;;;5.90;79.17;99809.39;105861;1256;109830;-71
2023/04/09 06:50:52;;;;;;;67.60;47.90;;;;;;;6.05;79.12;99814.42;105844;1254;102557;-70
2023/04/09 06:53:20;;;;;;;71.20;45.30;;;;;;;6.18;79.19;99817.05;105854;1256;107555;-71
2023/04/09 06:55:48;;;;;;;70.10;42.10;;;;;;;6.34;79.44;99816.39;105310;1256;96751;-70
2023/04/09 06:58:17;;;;;;;68.70;43.10;;;;;;;6.49;79.37;99818.19;105399;1256;97937;-72
2023/04/09 07:00:44;;;;;;;70.40;44.00;;;;;;;6.65;79.33;99822.60;105623;1256;109964;-71
2023/04/09 07:03:13;;;;;;;67.30;44.50;;;;;;;6.77;79.10;99818.90;107979;1255;102225;-70
2023/04/09 07:05:41;;;;;;;67.50;42.80;;;;;;;6.83;79.11;99819.36;105475;1266;107920;-71
2023/04/09 07:08:10;;;;;;;66.90;40.50;;;;;;;6.89;78.88;99824.89;105701;1257;96680;-75
2023/04/09 07:10:38;;;;;;;66.60;41.00;;;;;;;6.94;79.03;99824.52;105392;1254;97882;-71
2023/04/09 07:13:06;;;;;;;68.70;43.30;;;;;;;6.90;78.92;99828.54;105482;1253;110477;-71
2023/04/09 07:15:43;;;;;;;64.30;41.30;;;;;;;6.94;79.01;99830.16;105185;1266;102274;-70
2023/04/09 07:18:14;;;;;;;67.10;41.30;;;;;;;7.02;79.33;99827.30;105150;1256;107283;-70
2023/04/09 07:20:43;;;;;;;63.70;39.90;;;;;;;7.12;79.39;99832.13;105344;1257;96595;-74
2023/04/09 07:23:11;;;;;;;63.20;41.10;;;;;;;7.20;79.24;99835.15;105443;1256;97099;-72
2023/04/09 07:25:39;;;;;;;59.90;39.50;;;;;;;7.26;79.08;99831.13;105535;1252;109421;-69
2023/04/09 07:28:07;;;;;;;60.30;39.60;;;;;;;7.36;79.33;99832.09;106172;1255;102382;-72
2023/04/09 07:30:35;;;;;;;59.40;38.90;;;;;;;7.47;79.12;99834.25;105498;1260;107366;-69
2023/04/09 07:33:05;;;;;;;65.70;43.90;;;;;;;7.57;79.40;99835.85;105422;1256;96586;-69
2023/04/09 07:35:34;;;;;;;52.30;34.90;;;;;;;7.68;79.20;99838.52;105412;1256;97172;-70
2023/04/09 07:38:02;;;;;;;53.20;34.10;;;;;;;7.66;78.79;99833.86;105214;1258;109384;-70
2023/04/09 07:40:33;;;;;;;71.50;42.30;;;;;;;7.65;78.72;99839.20;105336;1257;101943;-71
2023/04/09 07:43:03;;;;;;;56.60;36.80;;;;;;;7.66;78.90;99838.98;105480;1257;107484;-68
2023/04/09 07:45:31;;;;;;;52.80;36.50;;;;;;;7.63;78.78;99840.39;105395;1255;96611;-70
2023/04/09 07:47:59;;;;;;;55.20;34.80;;;;;;;7.57;78.77;99845.20;105239;1256;97897;-70
2023/04/09 07:50:29;;;;;;;52.60;33.80;;;;;;;7.55;78.85;99847.80;105613;1256;109916;-69
2023/04/09 07:52:57;;;;;;;51.70;33.20;;;;;;;7.56;78.87;99849.52;108763;1251;102452;-70
2023/04/09 07:55:25;;;;;;;55.20;34.90;;;;;;;7.58;78.95;99844.81;105749;1253;107646;-69
2023/04/09 07:57:53;;;;;;;51.70;33.60;;;;;;;7.70;79.08;99846.92;105306;1251;96696;-68
2023/04/09 08:00:21;;;;;;;55.80;36.50;;;;;;;7.91;79.20;99842.52;105456;1256;97809;-70
2023/04/09 08:02:49;;;;;;;53.90;35.70;;;;;;;8.13;79.18;99836.33;105664;1256;109627;-69
2023/04/09 08:05:20;;;;;;;50.90;32.90;;;;;;;8.32;79.17;99837.70;106469;1257;102252;-71
2023/04/09 08:07:52;;;;;;;52.00;33.50;;;;;;;8.45;78.94;99835.41;105339;1256;107314;-71
2023/04/09 08:10:20;;;;;;;50.50;32.80;;;;;;;8.54;78.90;99838.38;105863;1257;97536;-71
2023/04/09 08:12:49;;;;;;;51.20;32.30;;;;;;;8.52;78.90;99840.40;105363;1257;97103;-73
2023/04/09 08:15:16;;;;;;;50.80;32.50;;;;;;;8.44;78.83;99842.72;105731;1255;110013;-71
2023/04/09 08:17:44;;;;;;;48.00;32.60;;;;;;;8.36;78.66;99842.40;105523;1254;102715;-72
2023/04/09 08:20:13;;;;;;;50.80;32.60;;;;;;;8.40;78.99;99843.12;105322;1256;107392;-71
2023/04/09 08:22:41;;;;;;;48.20;31.90;;;;;;;8.45;78.73;99838.60;105536;1258;97517;-71
2023/04/09 08:25:09;;;;;;;47.90;30.20;;;;;;;8.43;78.63;99833.02;105644;1255;98196;-71
2023/04/09 08:27:38;;;;;;;46.90;29.50;;;;;;;8.49;78.83;99833.81;105278;1253;109667;-74
2023/04/09 08:30:07;;;;;;;52.10;35.80;;;;;;;8.64;78.94;99838.35;105544;1254;100832;-72
2023/04/09 08:32:35;;;;;;;48.10;31.10;;;;;;;8.82;79.00;99832.33;105667;1256;107152;-70
2023/04/09 08:35:05;;;;;;;46.60;30.30;;;;;;;8.97;79.05;99832.73;105383;1256;96714;-71
2023/04/09 08:37:34;;;;;;;43.60;28.30;;;;;;;9.09;78.84;99832.64;105400;1256;96601;-71
2023/04/09 08:40:02;;;;;;;44.20;28.20;;;;;;;8.93;78.05;99835.97;105265;1255;109372;-72
2023/04/09 08:42:32;;;;;;;43.90;28.80;;;;;;;8.77;78.30;99838.21;105440;1271;102094;-72
2023/04/09 08:45:03;;;;;;;41.80;26.70;;;;;;;8.83;78.66;99837.54;105458;1265;107605;-72
2023/04/09 08:47:34;;;;;;;50.90;33.60;;;;;;;8.97;78.71;99836.26;105502;1255;97795;-74
2023/04/09 08:50:03;;;;;;;47.30;29.80;;;;;;;9.02;78.65;99834.76;105245;1257;97036;-72
2023/04/09 08:52:32;;;;;;;48.20;32.20;;;;;;;8.96;78.44;99835.30;105079;1267;108400;-75
2023/04/09 08:55:00;;;;;;;46.10;30.20;;;;;;;8.92;78.59;99838.63;105246;1267;102196;-71
2023/04/09 08:57:28;;;;;;;47.30;31.50;;;;;;;8.97;78.47;99839.98;105257;1255;107644;-71
2023/04/09 08:59:57;;;;;;;40.30;27.10;;;;;;;9.03;78.48;99834.72;105274;1266;97887;-72
2023/04/09 09:02:26;;;;;;;42.20;28.30;;;;;;;9.12;78.63;99830.86;105589;1257;97507;-72
2023/04/09 09:04:59;;;;;;;40.10;26.80;;;;;;;9.21;78.66;99831.27;105457;1257;109986;-72
2023/04/09 09:07:30;;;;;;;42.60;27.60;;;;;;;9.26;78.68;99829.57;105334;1264;184971;-69
2023/04/09 09:10:02;;;;;;;42.00;27.90;;;;;;;9.34;78.70;99829.88;105151;1257;107633;-71
2023/04/09 09:12:39;;;;;;;42.10;27.70;;;;;;;9.35;78.59;99829.10;105282;1268;96593;-71
2023/04/09 09:15:28;;;;;;;41.50;26.30;;;;;;;9.34;78.47;99831.46;105459;1256;97109;-70
2023/04/09 09:17:58;;;;;;;41.50;26.40;;;;;;;9.34;78.46;99826.48;105246;1258;109957;-74
2023/04/09 09:20:26;;;;;;;40.60;26.80;;;;;;;9.36;78.53;99825.84;105313;1265;102143;-69
2023/04/09 09:22:55;;;;;;;39.90;27.20;;;;;;;9.39;78.45;99827.25;105157;1255;107411;-70
2023/04/09 09:25:24;;;;;;;40.60;26.70;;;;;;;9.44;78.49;99827.04;105240;1257;97919;-70
2023/04/09 09:27:53;;;;;;;40.50;26.10;;;;;;;9.50;78.47;99823.69;105220;1256;98461;-70
2023/04/09 09:30:26;;;;;;;40.40;26.60;;;;;;;9.57;78.40;99824.18;105347;1258;109461;-72
2023/04/09 09:33:09;;;;;;;38.80;26.50;;;;;;;9.64;78.51;99819.16;105430;1274;102332;-71
2023/04/09 09:35:52;;;;;;;38.60;24.70;;;;;;;9.68;78.32;99816.45;105302;1259;106742;-74
2023/04/09 09:38:20;;;;;;;35.40;22.60;;;;;;;9.74;78.25;99817.02;105270;1256;96983;-70
2023/04/09 09:40:49;;;;;;;38.00;25.20;;;;;;;9.79;78.26;99813.37;105427;1255;100318;-72
2023/04/09 09:43:17;;;;;;;38.20;24.50;;;;;;;9.83;78.30;99817.20;105346;1265;110052;-71
2023/04/09 09:45:47;;;;;;;34.30;23.30;;;;;;;9.83;78.19;99813.68;105278;1257;102372;-71
2023/04/09 09:48:15;;;;;;;36.40;23.90;;;;;;;9.82;78.12;99812.82;105127;1267;107070;-75
2023/04/09 09:50:46;;;;;;;37.20;24.50;;;;;;;9.84;78.10;99811.48;105216;1254;96645;-73
2023/04/09 09:53:21;;;;;;;37.90;25.40;;;;;;;9.93;78.39;99810.11;105565;1265;96577;-69
2023/04/09 09:55:56;;;;;;;39.10;25.30;;;;;;;10.05;78.38;99807.64;105280;1257;109893;-71
2023/04/09 09:58:30;;;;;;;37.50;24.90;;;;;;;10.10;78.14;99807.70;105200;1267;101894;-71
2023/04/09 10:01:00;;;;;;;38.30;25.10;;;;;;;10.07;77.82;99802.55;105290;1254;107400;-72
2023/04/09 10:03:30;;;;;;;36.70;22.60;;;;;;;10.09;78.04;99805.45;105372;1251;97519;-71
2023/04/09 10:06:01;;;;;;;39.00;24.80;;;;;;;10.18;78.08;99805.81;105326;1254;97094;-70
2023/04/09 10:08:32;;;;;;;36.70;23.30;;;;;;;10.25;78.04;99805.71;106053;1257;110369;-71
2023/04/09 10:11:01;;;;;;;36.30;22.30;;;;;;;10.36;78.12;99801.89;108574;1254;101871;-70
2023/04/09 10:13:44;;;;;;;33.90;21.80;;;;;;;10.47;78.13;99797.89;105846;1254;107653;-71
2023/04/09 10:16:13;;;;;;;32.60;21.00;;;;;;;10.59;77.89;99800.55;108626;1256;94382;-71
2023/04/09 10:18:42;;;;;;;30.70;19.40;;;;;;;10.69;77.90;99794.63;108726;1251;94505;-72
2023/04/09 10:21:23;;;;;;;31.00;19.50;;;;;;;10.79;77.81;99794.73;107970;1251;109318;-69
2023/04/09 10:23:52;;;;;;;34.00;21.30;;;;;;;10.90;77.60;99791.23;105779;1251;102209;-72
2023/04/09 10:26:21;;;;;;;31.90;20.10;;;;;;;10.98;77.58;99788.05;105433;1256;107622;-73
2023/04/09 10:29:07;;;;;;;32.60;20.10;;;;;;;11.06;77.62;99786.16;105572;1257;96496;-71
2023/04/09 10:31:48;;;;;;;30.10;18.80;;;;;;;11.18;77.61;99786.40;105126;1257;98012;-70
2023/04/09 10:34:19;;;;;;;27.20;17.80;;;;;;;11.30;77.51;99784.10;105125;1265;109900;-74
2023/04/09 10:36:54;;;;;;;29.50;19.00;;;;;;;11.30;77.05;99782.27;105337;1256;101887;-71
2023/04/09 10:39:27;;;;;;;31.20;19.90;;;;;;;11.32;77.17;99779.48;105245;1266;107662;-76
2023/04/09 10:41:57;;;;;;;29.60;19.40;;;;;;;11.41;77.52;99782.11;105413;1257;97904;-72
2023/04/09 10:44:26;;;;;;;30.20;18.80;;;;;;;11.54;77.56;99778.62;106717;1254;97148;-71
2023/04/09 10:46:54;;;;;;;29.00;18.40;;;;;;;11.57;77.38;99779.12;105536;1254;109729;-69
2023/04/09 10:49:25;;;;;;;28.30;18.10;;;;;;;11.59;77.23;99776.34;108676;1253;101532;-68
2023/04/09 10:52:01;;;;;;;28.70;17.90;;;;;;;11.67;77.25;99772.30;108699;1253;107308;-70
2023/04/09 10:54:32;;;;;;;27.20;17.20;;;;;;;11.76;77.09;99770.77;105688;1256;97883;-75
2023/04/09 10:57:06;;;;;;;26.50;16.90;;;;;;;11.92;77.25;99766.57;105246;1256;96556;-75
2023/04/09 10:59:37;;;;;;;27.50;16.10;;;;;;;12.09;77.04;99764.39;105416;1257;109811;-76
2023/04/09 11:02:17;;;;;;;28.90;18.10;;;;;;;12.19;76.85;99763.48;105341;1273;103121;-77
2023/04/09 11:05:05;;;;;;;26.40;16.20;;;;;;;12.33;76.94;99762.77;105150;1267;107087;-78
2023/04/09 11:07:39;;;;;;;27.50;16.60;;;;;;;12.41;76.67;99756.91;105314;1254;96591;-79
2023/04/09 11:10:07;;;;;;;27.20;17.30;;;;;;;12.51;76.65;99757.41;105227;1254;96985;-74
2023/04/09 11:12:35;;;;;;;26.70;16.80;;;;;;;12.64;76.77;99756.67;105307;1254;109506;-76
2023/04/09 11:15:04;;;;;;;25.60;15.50;;;;;;;12.81;76.83;99753.88;105354;1256;102606;-76
2023/04/09 11:17:35;;;;;;;25.10;15.30;;;;;;;12.97;76.71;99756.86;105209;1275;107108;-77
2023/04/09 11:20:04;;;;;;;26.30;17.30;;;;;;;13.10;76.32;99753.61;105219;1257;96590;-76